createdAt,value
2023-02-16T07:59:00.543Z,22.30
2023-02-16T08:01:32.118Z,21.90
2023-02-16T08:03:59.498Z,22.55
2023-02-16T08:06:27.083Z,21.00
2023-02-16T08:08:54.346Z,20.92
2023-02-16T08:11:25.326Z,19.85
2023-02-16T08:13:53.116Z,20.48
2023-02-16T08:16:28.902Z,19.67
2023-02-16T08:19:00.213Z,18.88
2023-02-16T08:21:34.483Z,20.38
2023-02-16T08:24:13.174Z,20.13
2023-02-16T08:26:44.706Z,20.33
2023-02-16T08:29:14.916Z,20.17
2023-02-16T08:31:42.635Z,20.98
2023-02-16T08:34:10.711Z,20.15
2023-02-16T08:36:40.182Z,20.10
2023-02-16T08:39:19.007Z,20.08
2023-02-16T08:41:49.877Z,22.98
2023-02-16T08:44:20.345Z,21.63
2023-02-16T08:49:21.924Z,20.10
2023-02-16T08:51:56.905Z,20.58
2023-02-16T08:54:30.487Z,20.73
2023-02-16T08:57:00.015Z,21.85
2023-02-16T08:59:28.838Z,20.25
2023-02-16T09:01:59.125Z,20.13
2023-02-16T09:04:29.270Z,20.58
2023-02-16T09:06:58.563Z,19.88
2023-02-16T09:09:27.402Z,19.15
2023-02-16T09:11:55.185Z,20.52
2023-02-16T09:14:23.114Z,18.30
2023-02-16T09:16:50.605Z,19.65
2023-02-16T09:19:21.757Z,19.10
2023-02-16T09:21:50.964Z,17.95
2023-02-16T09:24:19.102Z,18.35
2023-02-16T09:26:46.594Z,17.20
2023-02-16T09:29:14.834Z,18.95
2023-02-16T09:31:44.267Z,18.92
2023-02-16T09:34:22.607Z,18.65
2023-02-16T09:36:51.016Z,19.13
2023-02-16T09:39:19.150Z,19.17
2023-02-16T09:42:54.088Z,17.85
2023-02-16T09:45:22.849Z,18.88
2023-02-16T09:47:52.148Z,18.50
2023-02-16T09:50:53.824Z,18.40
2023-02-16T09:53:34.853Z,20.15
2023-02-16T09:56:37.806Z,18.80
2023-02-16T10:00:08.498Z,17.88
2023-02-16T10:06:34.377Z,18.13
2023-02-16T10:09:16.479Z,17.60
2023-02-16T10:12:02.262Z,16.63
2023-02-16T10:14:51.225Z,17.10
2023-02-16T10:17:38.433Z,17.90
2023-02-16T10:20:35.973Z,17.40
2023-02-16T10:23:50.387Z,17.50
2023-02-16T10:26:44.173Z,17.00
2023-02-16T10:29:20.697Z,17.45
2023-02-16T10:32:20.807Z,18.58
2023-02-16T10:35:10.905Z,18.02
2023-02-16T10:37:54.697Z,17.33
2023-02-16T10:41:27.992Z,17.63
2023-02-16T10:44:43.836Z,17.30
2023-02-16T10:47:45.907Z,18.10
2023-02-16T10:50:52.133Z,16.88
2023-02-16T10:53:39.186Z,17.30
2023-02-16T10:57:01.040Z,17.50
2023-02-16T10:59:44.553Z,16.38
2023-02-16T11:02:23.686Z,16.38
2023-02-16T11:04:55.940Z,17.60
2023-02-16T11:07:31.313Z,17.08
2023-02-16T11:10:18.181Z,17.65
2023-02-16T11:12:45.519Z,16.55
2023-02-16T11:15:18.942Z,16.70
2023-02-16T11:18:08.674Z,17.38
2023-02-16T11:20:42.226Z,17.87
2023-02-16T11:23:31.808Z,17.50
2023-02-16T11:26:10.525Z,17.40
2023-02-16T11:28:46.647Z,18.00
2023-02-16T11:31:40.297Z,16.58
2023-02-16T11:34:51.175Z,16.50
2023-02-16T11:40:31.012Z,16.15
2023-02-16T11:43:02.035Z,15.63
2023-02-16T11:45:36.806Z,15.80
2023-02-16T11:48:24.765Z,15.40
2023-02-16T11:51:10.667Z,14.65
2023-02-16T11:53:42.624Z,16.77
2023-02-16T11:56:33.023Z,15.15
2023-02-16T11:59:21.177Z,14.30
2023-02-16T12:02:49.035Z,16.30
2023-02-16T12:06:22.203Z,16.45
2023-02-16T12:09:14.144Z,15.75
2023-02-16T12:12:14.723Z,15.50
2023-02-16T12:15:24.889Z,10.82
2023-02-16T12:18:58.416Z,10.88
2023-02-16T12:21:42.389Z,9.48
2023-02-16T12:24:41.277Z,10.07
2023-02-16T12:27:43.174Z,9.82
2023-02-16T12:31:27.516Z,10.07
2023-02-16T12:34:37.714Z,9.48
2023-02-16T12:37:17.352Z,10.35
2023-02-16T12:40:15.161Z,10.13
2023-02-16T12:43:04.102Z,9.50
2023-02-16T12:45:42.289Z,8.75
2023-02-16T12:48:57.451Z,7.43
2023-02-16T12:51:38.251Z,7.80
2023-02-16T12:54:22.419Z,8.80
2023-02-16T12:57:15.858Z,9.80
2023-02-16T13:00:15.038Z,8.10
2023-02-16T13:03:15.500Z,9.15
2023-02-16T13:09:13.905Z,8.43
2023-02-16T13:12:39.351Z,8.90
2023-02-16T13:15:37.181Z,9.15
2023-02-16T13:18:48.960Z,9.13
2023-02-16T13:22:18.325Z,8.20
2023-02-16T13:25:09.924Z,9.00
2023-02-16T13:28:52.657Z,7.95
2023-02-16T13:32:08.910Z,7.75
2023-02-16T13:36:19.588Z,7.80
2023-02-16T13:39:48.843Z,8.05
2023-02-16T13:42:45.155Z,8.27
2023-02-16T13:45:37.084Z,8.90
2023-02-16T13:48:46.380Z,8.55
2023-02-16T13:51:23.696Z,9.40
2023-02-16T13:54:03.908Z,7.97
2023-02-16T13:56:30.990Z,7.53
2023-02-16T13:59:18.580Z,8.15
2023-02-16T14:01:49.332Z,8.18
2023-02-16T14:04:22.547Z,8.38
2023-02-16T14:07:32.142Z,8.02
2023-02-16T14:09:59.543Z,7.28
2023-02-16T14:12:33.829Z,7.38
2023-02-16T14:15:19.311Z,8.52
2023-02-16T14:17:47.304Z,8.15
2023-02-16T14:20:15.768Z,7.57
2023-02-16T14:22:50.818Z,8.35
2023-02-16T14:25:23.975Z,7.88
2023-02-16T14:27:58.578Z,8.02
2023-02-16T14:30:42.531Z,8.52
2023-02-16T14:33:12.732Z,7.40
2023-02-16T14:36:14.281Z,6.75
2023-02-16T14:38:41.461Z,7.00
2023-02-16T14:41:36.811Z,7.72
2023-02-16T14:44:06.926Z,7.65
2023-02-16T14:47:52.819Z,6.82
2023-02-16T14:51:19.463Z,6.78
2023-02-16T14:54:48.517Z,6.95
2023-02-16T14:57:41.304Z,5.90
2023-02-16T15:01:08.648Z,6.78
2023-02-16T15:03:52.747Z,6.15
2023-02-16T15:06:43.061Z,3.08
2023-02-16T15:09:24.618Z,3.53
2023-02-16T15:12:22.878Z,3.45
2023-02-16T15:15:04.681Z,3.33
2023-02-16T15:17:47.163Z,2.80
2023-02-16T15:20:34.915Z,2.90
2023-02-16T15:23:17.653Z,2.65
2023-02-16T15:26:19.941Z,2.97
2023-02-16T15:29:18.657Z,3.03
2023-02-16T15:31:46.686Z,3.33
2023-02-16T15:34:36.185Z,2.95
2023-02-16T15:37:32.874Z,3.65
2023-02-16T15:40:29.789Z,2.95
2023-02-16T15:43:37.512Z,3.08
2023-02-16T15:46:33.090Z,3.42
2023-02-16T15:49:22.289Z,3.60
2023-02-16T15:51:49.933Z,3.45
2023-02-16T15:54:35.642Z,3.78
2023-02-16T15:57:30.885Z,3.53
2023-02-16T16:00:20.869Z,3.35
2023-02-16T16:02:58.354Z,3.83
2023-02-16T16:05:33.103Z,3.42
2023-02-16T16:08:01.716Z,3.10
2023-02-16T16:10:36.881Z,3.28
2023-02-16T16:13:28.726Z,3.25
2023-02-16T16:16:02.140Z,3.53
2023-02-16T16:18:51.068Z,3.30
2023-02-16T16:21:34.182Z,2.92
2023-02-16T16:24:11.743Z,3.10
2023-02-16T16:26:57.829Z,3.10
2023-02-16T16:29:46.789Z,3.28
2023-02-16T16:32:30.179Z,3.30
2023-02-16T16:34:57.805Z,3.40
2023-02-16T16:37:35.853Z,2.92
2023-02-16T16:40:27.693Z,3.38
2023-02-16T16:43:18.350Z,2.97
2023-02-16T16:48:37.193Z,2.53
2023-02-16T16:51:38.235Z,2.92
2023-02-16T16:54:39.845Z,2.60
2023-02-16T16:57:18.482Z,2.97
2023-02-16T16:59:45.776Z,3.10
2023-02-16T17:02:13.189Z,3.03
2023-02-16T17:04:40.464Z,2.72
2023-02-16T17:07:07.919Z,2.83
2023-02-16T17:09:35.265Z,2.75
2023-02-16T17:12:03.392Z,2.50
2023-02-16T17:14:30.722Z,2.60
2023-02-16T17:16:58.451Z,3.72
2023-02-16T17:19:29.354Z,3.10
2023-02-16T17:21:56.763Z,3.00
2023-02-16T17:24:24.159Z,3.22
2023-02-16T17:26:51.514Z,3.35
2023-02-16T17:29:18.899Z,2.50
2023-02-16T17:31:46.287Z,3.50
2023-02-16T17:34:13.697Z,3.75
2023-02-16T17:36:41.168Z,3.40
2023-02-16T17:39:08.501Z,4.10
2023-02-16T17:41:35.788Z,4.20
2023-02-16T17:44:04.186Z,3.97
2023-02-16T17:46:32.588Z,4.05
2023-02-16T17:48:59.898Z,3.78
2023-02-16T17:51:27.374Z,5.10
2023-02-16T17:53:54.775Z,5.00
2023-02-16T17:56:24.692Z,5.50
2023-02-16T17:58:52.323Z,4.70
2023-02-16T18:01:21.345Z,5.15
2023-02-16T18:03:48.990Z,5.60
2023-02-16T18:06:25.047Z,5.68
2023-02-16T18:08:53.377Z,5.90
2023-02-16T18:11:20.679Z,5.50
2023-02-16T18:13:48.337Z,5.63
2023-02-16T18:16:21.757Z,4.93
2023-02-16T18:18:49.154Z,5.78
2023-02-16T18:21:16.532Z,6.00
2023-02-16T18:23:43.891Z,6.13
2023-02-16T18:26:16.517Z,5.57
2023-02-16T18:28:44.723Z,6.38
2023-02-16T18:31:13.061Z,7.10
2023-02-16T18:33:40.562Z,7.15
2023-02-16T18:36:08.987Z,6.75
2023-02-16T18:38:36.542Z,7.32
2023-02-16T18:41:04.735Z,7.20
2023-02-16T18:43:32.108Z,7.68
2023-02-16T18:45:59.587Z,7.00
2023-02-16T18:48:26.935Z,7.93
2023-02-16T18:50:54.241Z,6.63
2023-02-16T18:53:21.546Z,6.40
2023-02-16T18:55:48.873Z,7.60
2023-02-16T18:58:16.393Z,7.10
2023-02-16T19:00:44.099Z,7.72
2023-02-16T19:03:11.577Z,7.88
2023-02-16T19:05:38.883Z,8.02
2023-02-16T19:08:06.707Z,7.55
2023-02-16T19:10:34.255Z,7.70
2023-02-16T19:13:02.243Z,7.72
2023-02-16T19:15:30.087Z,7.72
2023-02-16T19:17:57.786Z,6.95
2023-02-16T19:20:25.620Z,7.10
2023-02-16T19:22:53.166Z,6.85
2023-02-16T19:25:21.274Z,8.23
2023-02-16T19:27:48.822Z,8.35
2023-02-16T19:30:16.424Z,8.75
2023-02-16T19:32:43.860Z,7.35
2023-02-16T19:35:12.431Z,6.88
2023-02-16T19:37:39.931Z,7.60
2023-02-16T19:40:11.104Z,7.32
2023-02-16T19:42:39.894Z,8.20
2023-02-16T19:45:08.644Z,7.82
2023-02-16T19:47:35.951Z,8.05
2023-02-16T19:50:04.067Z,7.50
2023-02-16T19:52:31.483Z,8.35
2023-02-16T19:54:58.803Z,11.98
2023-02-16T19:57:26.165Z,9.10
2023-02-16T19:59:53.470Z,9.57
2023-02-16T20:02:20.855Z,10.25
2023-02-16T20:04:48.215Z,8.63
2023-02-16T20:07:15.576Z,10.10
2023-02-16T20:09:42.888Z,10.27
2023-02-16T20:12:10.261Z,9.23
2023-02-16T20:14:37.554Z,9.85
2023-02-16T20:17:05.075Z,9.57
2023-02-16T20:19:32.390Z,9.82
2023-02-16T20:21:59.728Z,9.88
2023-02-16T20:24:27.066Z,10.50
2023-02-16T20:26:54.471Z,9.48
2023-02-16T20:29:22.094Z,9.90
2023-02-16T20:31:57.940Z,9.32
2023-02-16T20:34:27.579Z,10.48
2023-02-16T20:36:55.210Z,9.77
2023-02-16T20:39:23.571Z,8.73
2023-02-16T20:41:51.010Z,9.07
2023-02-16T20:44:18.386Z,9.38
2023-02-16T20:46:45.913Z,9.00
2023-02-16T20:49:13.589Z,10.15
2023-02-16T20:51:41.354Z,9.20
2023-02-16T20:54:09.428Z,9.50
2023-02-16T20:56:36.744Z,9.38
2023-02-16T20:59:05.118Z,9.55
2023-02-16T21:01:46.533Z,9.82
2023-02-16T21:04:18.861Z,8.82
2023-02-16T21:06:46.994Z,9.00
2023-02-16T21:09:15.845Z,8.25
2023-02-16T21:11:43.949Z,8.50
2023-02-16T21:14:13.058Z,7.95
2023-02-16T21:16:41.118Z,8.48
2023-02-16T21:19:21.006Z,8.77
2023-02-16T21:21:50.009Z,7.80
2023-02-16T21:24:17.451Z,8.45
2023-02-16T21:26:44.922Z,9.20
2023-02-16T21:29:12.694Z,8.77
2023-02-16T21:31:40.187Z,8.75
2023-02-16T21:34:07.549Z,8.98
2023-02-16T21:36:34.905Z,9.65
2023-02-16T21:39:02.989Z,10.30
2023-02-16T21:41:30.686Z,8.80
2023-02-16T21:44:13.653Z,9.43
2023-02-16T21:46:47.716Z,9.93
2023-02-16T21:49:20.190Z,9.77
2023-02-16T21:51:49.024Z,9.15
2023-02-16T21:54:42.218Z,10.02
2023-02-16T21:57:09.529Z,10.07
2023-02-16T21:59:37.137Z,8.55
2023-02-16T22:02:04.502Z,9.07
2023-02-16T22:04:31.811Z,10.32
2023-02-16T22:06:59.095Z,9.48
2023-02-16T22:09:26.415Z,9.75
2023-02-16T22:11:53.775Z,9.00
2023-02-16T22:14:21.090Z,9.05
2023-02-16T22:16:50.726Z,9.23
2023-02-16T22:19:18.903Z,10.43
2023-02-16T22:21:48.259Z,9.25
2023-02-16T22:24:18.503Z,9.68
2023-02-16T22:26:49.234Z,9.82
2023-02-16T22:29:17.564Z,10.02
2023-02-16T22:31:50.240Z,9.52
2023-02-16T22:34:23.986Z,9.38
2023-02-16T22:36:51.698Z,9.80
2023-02-16T22:39:20.361Z,9.93
2023-02-16T22:41:51.289Z,10.48
2023-02-16T22:44:18.656Z,9.65
2023-02-16T22:46:45.978Z,9.82
2023-02-16T22:49:13.284Z,9.05
2023-02-16T22:51:40.613Z,10.55
2023-02-16T22:54:08.477Z,10.27
2023-02-16T22:56:36.076Z,10.25
2023-02-16T22:59:03.592Z,9.57
2023-02-16T23:01:31.574Z,8.98
2023-02-16T23:04:01.485Z,10.43
2023-02-16T23:06:38.162Z,9.48
2023-02-16T23:09:15.628Z,8.68
2023-02-16T23:11:43.012Z,10.57
2023-02-16T23:14:16.517Z,9.68
2023-02-16T23:16:54.781Z,9.45
2023-02-16T23:19:26.849Z,9.23
2023-02-16T23:21:54.976Z,9.82
2023-02-16T23:24:24.068Z,9.13
2023-02-16T23:26:52.692Z,9.65
2023-02-16T23:29:20.686Z,9.23
2023-02-16T23:31:49.098Z,9.90
